createdAt,value
2022-08-05T00:02:27.698Z,25.48
2022-08-05T00:04:56.196Z,25.42
2022-08-05T00:07:59.299Z,25.19
2022-08-05T00:10:10.813Z,24.95
2022-08-05T00:12:55.652Z,25.02
2022-08-05T00:15:54.947Z,24.78
2022-08-05T00:18:21.425Z,24.80
2022-08-05T00:20:50.843Z,24.76
2022-08-05T00:23:44.574Z,24.90
2022-08-05T00:26:05.533Z,24.14
2022-08-05T00:28:32.924Z,23.73
2022-08-05T00:31:02.845Z,24.06
2022-08-05T00:34:53.876Z,24.17
2022-08-05T00:37:20.097Z,23.75
2022-08-05T00:39:07.508Z,24.21
2022-08-05T00:41:52.128Z,24.09
2022-08-05T00:44:30.880Z,22.95
2022-08-05T00:47:01.955Z,23.63
2022-08-05T00:49:44.790Z,23.16
2022-08-05T00:52:28.091Z,23.05
2022-08-05T00:54:55.192Z,23.44
2022-08-05T00:57:25.274Z,22.87
2022-08-05T00:59:58.496Z,23.44
2022-08-05T01:02:25.156Z,23.03
2022-08-05T01:04:51.757Z,22.95
2022-08-05T01:07:18.520Z,22.48
2022-08-05T01:09:45.648Z,21.99
2022-08-05T01:12:24.837Z,21.89
2022-08-05T01:15:35.584Z,21.93
2022-08-05T01:18:04.067Z,21.94
2022-08-05T01:20:49.173Z,21.97
2022-08-05T01:24:13.266Z,21.67
2022-08-05T01:26:52.996Z,22.43
2022-08-05T01:29:43.065Z,21.55
2022-08-05T01:32:12.534Z,21.99
2022-08-05T01:34:57.247Z,21.89
2022-08-05T01:37:48.655Z,21.98
2022-08-05T01:40:17.923Z,21.76
2022-08-05T01:42:46.860Z,21.29
2022-08-05T01:45:16.486Z,21.20
2022-08-05T01:47:46.348Z,21.71
2022-08-05T01:50:19.982Z,21.35
2022-08-05T01:52:57.885Z,21.25
2022-08-05T01:55:29.349Z,21.12
2022-08-05T01:58:13.648Z,21.23
2022-08-05T02:00:50.773Z,21.62
2022-08-05T02:03:31.610Z,21.03
2022-08-05T02:06:03.786Z,21.19
2022-08-05T02:08:58.267Z,21.51
2022-08-05T02:11:33.200Z,21.91
2022-08-05T02:14:12.684Z,21.20
2022-08-05T02:17:02.297Z,21.56
2022-08-05T02:19:35.669Z,20.96
2022-08-05T02:22:42.412Z,21.08
2022-08-05T02:25:14.597Z,21.26
2022-08-05T02:27:59.252Z,20.64
2022-08-05T02:30:32.361Z,20.81
2022-08-05T02:33:02.747Z,20.68
2022-08-05T02:35:37.794Z,20.54
2022-08-05T02:38:19.329Z,20.68
2022-08-05T02:40:46.833Z,20.51
2022-08-05T02:43:16.755Z,19.98
2022-08-05T02:45:52.485Z,20.22
2022-08-05T02:48:29.212Z,20.32
2022-08-05T02:50:59.996Z,20.30
2022-08-05T02:53:35.930Z,20.14
2022-08-05T02:56:08.429Z,20.05
2022-08-05T02:58:37.071Z,20.24
2022-08-05T03:01:14.799Z,20.24
2022-08-05T03:04:02.680Z,20.14
2022-08-05T03:06:56.224Z,20.05
2022-08-05T03:09:17.916Z,19.85
2022-08-05T03:12:04.919Z,19.85
2022-08-05T03:14:31.644Z,19.74
2022-08-05T03:16:59.167Z,19.86
2022-08-05T03:19:34.020Z,19.82
2022-08-05T03:22:01.371Z,19.70
2022-08-05T03:24:30.350Z,19.63
2022-08-05T03:26:59.905Z,19.62
2022-08-05T03:29:44.543Z,19.84
2022-08-05T03:32:15.485Z,20.00
2022-08-05T03:34:50.951Z,19.89
2022-08-05T03:37:19.334Z,19.97
2022-08-05T03:39:58.839Z,20.02
2022-08-05T03:42:27.198Z,19.93
2022-08-05T03:44:56.248Z,19.83
2022-08-05T03:47:24.311Z,19.96
2022-08-05T03:49:52.414Z,19.70
2022-08-05T03:52:38.457Z,20.10
2022-08-05T03:56:05.287Z,19.93
2022-08-05T03:58:12.628Z,19.88
2022-08-05T04:00:42.100Z,19.74
2022-08-05T04:03:26.570Z,19.65
2022-08-05T04:05:55.661Z,19.55
2022-08-05T04:08:35.174Z,19.67
2022-08-05T04:11:05.069Z,20.07
2022-08-05T04:13:49.782Z,19.85
2022-08-05T04:16:25.462Z,19.49
2022-08-05T04:19:00.166Z,20.14
2022-08-05T04:22:05.736Z,20.20
2022-08-05T04:24:19.293Z,19.61
2022-08-05T04:26:50.133Z,19.76
2022-08-05T04:29:17.022Z,19.95
2022-08-05T04:31:43.724Z,19.69
2022-08-05T04:34:18.106Z,19.69
2022-08-05T04:36:50.120Z,19.71
2022-08-05T04:39:18.554Z,19.34
2022-08-05T04:41:46.455Z,19.56
2022-08-05T04:44:21.016Z,19.53
2022-08-05T04:46:51.029Z,19.55
2022-08-05T04:49:24.765Z,19.44
2022-08-05T04:52:07.777Z,19.58
2022-08-05T04:54:34.612Z,19.65
2022-08-05T04:57:01.421Z,19.87
2022-08-05T04:59:37.421Z,19.97
2022-08-05T05:02:37.507Z,19.83
2022-08-05T05:04:53.157Z,19.86
2022-08-05T05:07:31.966Z,19.83
2022-08-05T05:10:02.165Z,19.80
2022-08-05T05:12:29.666Z,19.85
2022-08-05T05:14:56.561Z,20.27
2022-08-05T05:17:48.006Z,20.15
2022-08-05T05:20:12.173Z,20.10
2022-08-05T05:22:40.926Z,20.20
2022-08-05T05:25:16.647Z,20.69
2022-08-05T05:27:48.770Z,20.95
2022-08-05T05:30:30.737Z,21.23
2022-08-05T05:33:09.148Z,21.34
2022-08-05T05:35:43.696Z,21.21
2022-08-05T05:38:13.188Z,21.39
2022-08-05T05:40:46.627Z,21.51
2022-08-05T05:43:16.258Z,21.58
2022-08-05T05:45:49.364Z,21.32
2022-08-05T05:48:16.266Z,21.51
2022-08-05T05:50:44.429Z,21.37
2022-08-05T05:53:22.341Z,22.18
2022-08-05T05:55:51.465Z,22.10
2022-08-05T05:58:31.926Z,22.48
2022-08-05T06:01:13.064Z,22.51
2022-08-05T06:04:00.719Z,22.74
2022-08-05T06:06:31.448Z,22.88
2022-08-05T06:09:04.067Z,22.39
2022-08-05T06:11:31.957Z,22.73
2022-08-05T06:14:00.289Z,22.86
2022-08-05T06:16:33.018Z,22.89
2022-08-05T06:19:05.436Z,22.16
2022-08-05T06:21:36.811Z,22.35
2022-08-05T06:24:11.593Z,22.45
2022-08-05T06:26:40.277Z,22.87
2022-08-05T06:29:43.113Z,22.94
2022-08-05T06:32:25.254Z,23.06
2022-08-05T06:34:58.600Z,22.52
2022-08-05T06:37:55.587Z,23.10
2022-08-05T06:40:18.493Z,23.11
2022-08-05T06:42:48.888Z,23.07
2022-08-05T06:46:02.844Z,23.19
2022-08-05T06:48:37.316Z,23.56
2022-08-05T06:50:57.084Z,23.66
2022-08-05T06:53:28.408Z,23.93
2022-08-05T06:56:00.023Z,23.81
2022-08-05T06:58:35.141Z,23.73
2022-08-05T07:01:05.609Z,23.54
2022-08-05T07:03:33.916Z,23.24
2022-08-05T07:06:05.907Z,23.14
2022-08-05T07:08:47.502Z,23.25
2022-08-05T07:11:15.768Z,22.95
2022-08-05T07:14:01.778Z,22.91
2022-08-05T07:18:08.483Z,22.79
2022-08-05T07:22:28.907Z,22.96
2022-08-05T07:25:55.601Z,23.51
2022-08-05T07:28:02.321Z,23.97
2022-08-05T07:30:39.040Z,24.06
2022-08-05T07:33:09.375Z,24.18
2022-08-05T07:36:04.265Z,24.06
2022-08-05T07:38:33.871Z,23.98
2022-08-05T07:42:06.764Z,24.18
2022-08-05T07:43:58.280Z,23.98
2022-08-05T07:46:28.890Z,23.67
2022-08-05T07:49:01.835Z,23.59
2022-08-05T07:51:37.452Z,23.79
2022-08-05T07:54:08.305Z,24.23
2022-08-05T07:57:02.821Z,24.19
2022-08-05T07:59:38.255Z,23.83
2022-08-05T08:02:15.968Z,23.92
2022-08-05T08:04:48.292Z,23.69
2022-08-05T08:07:16.407Z,24.09
2022-08-05T08:09:45.147Z,24.31
2022-08-05T08:12:33.267Z,24.62
2022-08-05T08:15:03.517Z,25.06
2022-08-05T08:17:32.605Z,25.40
2022-08-05T08:20:21.107Z,25.50
2022-08-05T08:22:54.279Z,25.51
2022-08-05T08:25:27.048Z,25.66
2022-08-05T08:28:18.427Z,26.21
2022-08-05T08:30:57.517Z,26.39
2022-08-05T08:33:24.267Z,26.22
2022-08-05T08:36:07.814Z,26.43
2022-08-05T08:38:40.708Z,27.07
2022-08-05T08:41:10.329Z,27.00
2022-08-05T08:45:22.832Z,27.02
2022-08-05T08:46:32.012Z,26.64
2022-08-05T08:49:17.397Z,26.73
2022-08-05T08:52:03.882Z,27.05
2022-08-05T08:54:36.889Z,27.64
2022-08-05T08:57:11.290Z,27.40
2022-08-05T08:59:41.697Z,27.82
2022-08-05T09:02:09.085Z,28.17
2022-08-05T09:04:58.290Z,27.89
2022-08-05T09:07:29.088Z,28.08
2022-08-05T09:10:06.953Z,27.82
2022-08-05T09:12:35.159Z,27.77
2022-08-05T09:15:06.038Z,27.98
2022-08-05T09:17:42.498Z,28.20
2022-08-05T09:20:11.681Z,28.14
2022-08-05T09:23:09.235Z,28.02
2022-08-05T09:26:02.193Z,27.67
2022-08-05T09:28:32.102Z,27.69
2022-08-05T09:31:22.682Z,27.78
2022-08-05T09:34:14.440Z,27.63
2022-08-05T09:36:59.910Z,27.77
2022-08-05T09:39:41.215Z,27.93
2022-08-05T09:42:23.378Z,27.73
2022-08-05T09:44:56.438Z,28.26
2022-08-05T09:47:47.984Z,28.64
2022-08-05T09:50:18.028Z,27.70
2022-08-05T09:53:01.144Z,28.30
2022-08-05T09:55:56.479Z,28.17
2022-08-05T09:58:15.798Z,27.97
2022-08-05T10:01:15.310Z,27.54
2022-08-05T10:04:00.476Z,27.78
2022-08-05T10:06:28.245Z,27.09
2022-08-05T10:08:56.728Z,27.36
2022-08-05T10:11:23.663Z,27.41
2022-08-05T10:13:58.104Z,27.82
2022-08-05T10:16:34.087Z,27.49
2022-08-05T10:19:08.552Z,28.17
2022-08-05T10:21:40.450Z,28.15
2022-08-05T10:24:13.459Z,28.25
2022-08-05T10:26:51.441Z,28.08
2022-08-05T10:29:23.738Z,28.17
2022-08-05T10:32:54.989Z,28.20
2022-08-05T10:35:00.674Z,28.36
2022-08-05T10:37:40.423Z,28.42
2022-08-05T10:40:20.532Z,28.48
2022-08-05T10:43:01.229Z,28.92
2022-08-05T10:45:40.441Z,29.12
2022-08-05T10:48:52.691Z,29.82
2022-08-05T10:51:28.590Z,30.00
2022-08-05T10:54:05.644Z,30.25
2022-08-05T10:56:53.403Z,29.71
2022-08-05T11:00:02.450Z,29.33
2022-08-05T11:02:34.691Z,29.38
2022-08-05T11:05:08.595Z,29.79
2022-08-05T11:08:01.792Z,30.02
2022-08-05T11:10:37.113Z,29.62
2022-08-05T11:13:05.527Z,29.75
2022-08-05T11:16:00.346Z,29.30
2022-08-05T11:18:34.076Z,30.54
2022-08-05T11:21:11.216Z,30.26
2022-08-05T11:24:05.437Z,30.11
2022-08-05T11:26:40.561Z,29.77
2022-08-05T11:29:43.081Z,30.38
2022-08-05T11:32:29.875Z,30.50
2022-08-05T11:34:57.413Z,30.44
2022-08-05T11:38:30.793Z,31.08
2022-08-05T11:41:34.661Z,30.55
2022-08-05T11:44:05.496Z,29.91
2022-08-05T11:46:58.728Z,30.72
2022-08-05T11:49:39.288Z,30.48
2022-08-05T11:52:11.872Z,30.40
2022-08-05T11:54:40.628Z,30.40
2022-08-05T11:57:24.273Z,30.51
2022-08-05T11:59:52.737Z,31.33
2022-08-05T12:02:31.379Z,31.43
2022-08-05T12:05:07.710Z,31.47
2022-08-05T12:08:03.468Z,31.51
2022-08-05T12:10:43.455Z,31.67
2022-08-05T12:13:18.763Z,31.07
2022-08-05T12:16:15.398Z,31.31
2022-08-05T12:18:52.299Z,31.39
2022-08-05T12:21:25.000Z,30.76
2022-08-05T12:23:57.761Z,29.70
2022-08-05T12:26:47.583Z,31.33
2022-08-05T12:29:25.789Z,31.55
2022-08-05T12:31:57.957Z,31.17
2022-08-05T12:34:36.915Z,31.84
2022-08-05T12:37:10.898Z,31.41
2022-08-05T12:39:45.135Z,31.40
2022-08-05T12:42:20.430Z,31.61
2022-08-05T12:44:47.907Z,31.34
2022-08-05T12:47:26.816Z,31.52
2022-08-05T12:50:04.252Z,31.70
2022-08-05T12:52:39.719Z,32.00
2022-08-05T12:55:23.037Z,31.73
2022-08-05T12:58:50.396Z,32.10
2022-08-05T13:01:59.712Z,32.07
2022-08-05T13:03:41.447Z,31.99
2022-08-05T13:06:14.562Z,32.73
2022-08-05T13:08:52.283Z,32.19
2022-08-05T13:12:02.767Z,32.10
2022-08-05T13:14:19.413Z,32.00
2022-08-05T13:16:52.685Z,32.11
2022-08-05T13:19:51.773Z,32.66
2022-08-05T13:22:28.058Z,32.83
2022-08-05T13:25:00.348Z,32.27
2022-08-05T13:27:38.049Z,31.95
2022-08-05T13:30:35.185Z,32.09
2022-08-05T13:32:56.395Z,32.32
2022-08-05T13:35:42.794Z,32.40
2022-08-05T13:38:14.522Z,31.47
2022-08-05T13:40:55.321Z,31.58
2022-08-05T13:43:23.200Z,31.64
2022-08-05T13:45:50.839Z,32.62
2022-08-05T13:48:57.601Z,32.22
2022-08-05T13:51:13.921Z,31.79
2022-08-05T13:53:48.239Z,30.99
2022-08-05T13:56:18.783Z,32.06
2022-08-05T13:58:52.708Z,32.75
2022-08-05T14:01:23.679Z,33.05
2022-08-05T14:04:12.641Z,33.02
2022-08-05T14:06:39.384Z,34.79
2022-08-05T14:09:14.392Z,33.79
2022-08-05T14:12:04.488Z,33.69
2022-08-05T14:14:33.658Z,34.51
2022-08-05T14:17:00.813Z,36.30
2022-08-05T14:19:27.469Z,35.02
2022-08-05T14:22:09.800Z,35.91
2022-08-05T14:24:39.828Z,35.39
2022-08-05T14:27:17.617Z,36.65
2022-08-05T14:29:45.457Z,38.62
2022-08-05T14:32:26.631Z,33.02
2022-08-05T14:34:56.720Z,39.78
2022-08-05T14:37:45.623Z,39.02
2022-08-05T14:40:14.049Z,41.61
2022-08-05T14:42:43.358Z,43.12
2022-08-05T14:45:10.400Z,34.61
2022-08-05T14:47:58.777Z,34.08
2022-08-05T14:50:25.270Z,33.08
2022-08-05T14:52:57.722Z,32.08
2022-08-05T14:55:38.509Z,31.85
2022-08-05T14:58:11.896Z,31.91
2022-08-05T15:00:58.893Z,32.35
2022-08-05T15:03:33.162Z,33.91
2022-08-05T15:06:07.757Z,32.87
2022-08-05T15:08:59.449Z,33.29
2022-08-05T15:11:51.153Z,32.87
2022-08-05T15:14:20.065Z,33.74
2022-08-05T15:17:00.979Z,34.23
2022-08-05T15:19:27.775Z,36.32
2022-08-05T15:21:54.580Z,40.28
2022-08-05T15:24:27.718Z,38.59
2022-08-05T15:26:56.031Z,36.56
2022-08-05T15:29:23.910Z,39.03
2022-08-05T15:32:02.459Z,43.11
2022-08-05T15:34:31.830Z,37.38
2022-08-05T15:37:03.530Z,38.23
2022-08-05T15:41:03.178Z,40.69
2022-08-05T15:42:28.686Z,39.29
2022-08-05T15:45:07.601Z,34.54
2022-08-05T15:47:42.465Z,35.99
2022-08-05T15:50:13.932Z,37.13
2022-08-05T15:52:54.615Z,35.78
2022-08-05T15:55:24.964Z,34.90
2022-08-05T15:58:16.522Z,35.56
2022-08-05T16:00:50.754Z,33.78
2022-08-05T16:03:32.734Z,31.79
2022-08-05T16:06:01.332Z,32.12
2022-08-05T16:08:30.392Z,31.75
2022-08-05T16:10:58.039Z,31.45
2022-08-05T16:13:34.259Z,31.07
2022-08-05T16:16:03.499Z,30.62
2022-08-05T16:18:32.683Z,29.34
2022-08-05T16:21:04.340Z,29.36
2022-08-05T16:23:53.234Z,29.61
2022-08-05T16:26:19.052Z,29.86
2022-08-05T16:28:53.080Z,29.48
2022-08-05T16:31:21.448Z,29.05
2022-08-05T16:33:48.568Z,29.28
2022-08-05T16:36:20.354Z,29.62
2022-08-05T16:38:54.675Z,29.56
2022-08-05T16:42:14.140Z,28.68
2022-08-05T16:44:14.210Z,28.32
2022-08-05T16:46:55.387Z,28.10
2022-08-05T16:49:22.816Z,27.32
2022-08-05T16:51:51.406Z,27.02
2022-08-05T16:54:28.962Z,26.53
2022-08-05T16:56:57.092Z,25.13
2022-08-05T16:59:23.743Z,24.22
2022-08-05T17:01:54.718Z,22.51
2022-08-05T17:04:27.829Z,21.91
2022-08-05T17:07:00.058Z,21.29
2022-08-05T17:09:29.532Z,21.47
2022-08-05T17:11:59.323Z,21.84
2022-08-05T17:14:37.102Z,21.90
2022-08-05T17:17:14.484Z,21.84
2022-08-05T17:19:45.309Z,22.43
2022-08-05T17:22:17.885Z,22.73
2022-08-05T17:24:57.616Z,22.09
2022-08-05T17:27:34.006Z,21.92
2022-08-05T17:30:02.796Z,21.20
2022-08-05T17:32:30.266Z,21.88
2022-08-05T17:35:00.628Z,21.60
2022-08-05T17:37:39.681Z,21.32
2022-08-05T17:40:12.778Z,20.77
2022-08-05T17:42:43.162Z,21.21
2022-08-05T17:45:22.147Z,21.34
2022-08-05T17:47:54.652Z,20.75
2022-08-05T17:50:28.090Z,20.57
2022-08-05T17:53:01.936Z,20.63
2022-08-05T17:55:37.236Z,21.20
2022-08-05T17:58:09.759Z,21.27
2022-08-05T18:00:40.889Z,21.03
2022-08-05T18:03:28.084Z,21.54
2022-08-05T18:06:04.516Z,21.41
2022-08-05T18:08:34.755Z,21.09
2022-08-05T18:11:03.270Z,21.08
2022-08-05T18:13:36.834Z,21.08
2022-08-05T18:16:13.682Z,21.11
2022-08-05T18:18:41.245Z,20.35
2022-08-05T18:21:13.365Z,19.79
2022-08-05T18:23:47.236Z,20.01
2022-08-05T18:26:14.609Z,20.16
2022-08-05T18:28:46.594Z,19.64
2022-08-05T18:31:15.693Z,19.81
2022-08-05T18:33:46.579Z,19.92
2022-08-05T18:36:15.454Z,19.62
2022-08-05T18:38:42.780Z,19.70
2022-08-05T18:41:55.217Z,19.64
2022-08-05T18:43:56.362Z,19.58
2022-08-05T18:46:23.071Z,19.51
2022-08-05T18:48:53.570Z,19.59
2022-08-05T18:52:05.820Z,19.64
2022-08-05T18:54:31.260Z,19.64
2022-08-05T18:57:02.115Z,19.58
2022-08-05T18:59:43.587Z,19.42
2022-08-05T19:02:28.352Z,19.32
2022-08-05T19:05:03.221Z,19.38
2022-08-05T19:07:49.580Z,19.22
2022-08-05T19:10:28.037Z,19.76
2022-08-05T19:12:56.884Z,19.59
2022-08-05T19:15:57.935Z,19.39
2022-08-05T19:18:13.440Z,19.53
2022-08-05T19:20:49.020Z,19.59
2022-08-05T19:24:05.011Z,18.88
2022-08-05T19:26:02.915Z,18.96
2022-08-05T19:28:31.217Z,18.78
2022-08-05T19:31:00.260Z,18.60
2022-08-05T19:33:35.107Z,18.31
2022-08-05T19:36:08.965Z,18.32
2022-08-05T19:38:36.430Z,18.39
2022-08-05T19:41:06.624Z,18.54
2022-08-05T19:44:05.375Z,18.52
2022-08-05T19:46:29.471Z,18.57
2022-08-05T19:49:03.237Z,18.25
2022-08-05T19:52:08.725Z,18.55
2022-08-05T19:54:29.547Z,18.55
2022-08-05T19:56:59.364Z,18.60
2022-08-05T20:00:00.732Z,18.60
2022-08-05T20:02:15.052Z,18.27
2022-08-05T20:04:46.216Z,18.56
2022-08-05T20:07:15.372Z,18.78
2022-08-05T20:09:53.579Z,18.97
2022-08-05T20:12:23.472Z,18.77
2022-08-05T20:14:52.049Z,19.09
2022-08-05T20:17:23.477Z,19.22
2022-08-05T20:19:56.942Z,19.18
2022-08-05T20:22:26.985Z,18.94
2022-08-05T20:24:57.241Z,18.80
2022-08-05T20:27:27.287Z,18.62
2022-08-05T20:30:09.619Z,18.72
2022-08-05T20:32:36.951Z,18.56
2022-08-05T20:35:11.961Z,18.76
2022-08-05T20:38:07.809Z,18.40
2022-08-05T20:40:26.753Z,18.55
2022-08-05T20:42:53.773Z,18.59
2022-08-05T20:45:55.878Z,18.85
2022-08-05T20:48:13.385Z,18.79
2022-08-05T20:50:45.344Z,17.80
2022-08-05T20:53:16.307Z,17.65
2022-08-05T20:56:09.079Z,17.69
2022-08-05T20:58:36.003Z,18.05
2022-08-05T21:01:04.443Z,17.89
2022-08-05T21:03:34.531Z,18.33
2022-08-05T21:06:01.923Z,18.57
2022-08-05T21:08:41.321Z,18.53
2022-08-05T21:11:11.798Z,18.04
2022-08-05T21:13:56.161Z,17.90
2022-08-05T21:16:29.358Z,18.21
2022-08-05T21:18:59.902Z,18.23
2022-08-05T21:21:39.154Z,18.11
2022-08-05T21:24:13.130Z,17.95
2022-08-05T21:26:41.487Z,17.93
2022-08-05T21:29:12.545Z,17.77
2022-08-05T21:31:43.652Z,17.95
2022-08-05T21:34:11.064Z,18.17
2022-08-05T21:36:39.098Z,17.97
2022-08-05T21:39:09.884Z,18.00
2022-08-05T21:41:41.593Z,18.11
2022-08-05T21:44:19.155Z,18.08
2022-08-05T21:46:53.772Z,17.99
2022-08-05T21:49:59.476Z,17.82
2022-08-05T21:52:16.677Z,18.28
2022-08-05T21:54:51.243Z,18.02
2022-08-05T21:57:31.712Z,18.52
2022-08-05T22:00:06.251Z,18.22
2022-08-05T22:02:33.662Z,18.65
2022-08-05T22:05:00.456Z,17.65
2022-08-05T22:07:54.251Z,17.40
2022-08-05T22:10:17.035Z,17.91
2022-08-05T22:12:45.131Z,18.10
2022-08-05T22:16:01.781Z,18.47
2022-08-05T22:18:06.124Z,17.70
2022-08-05T22:20:35.590Z,17.87
2022-08-05T22:23:24.741Z,18.07
2022-08-05T22:26:30.195Z,17.81
2022-08-05T22:28:56.960Z,17.93
2022-08-05T22:31:30.141Z,17.94
2022-08-05T22:34:01.302Z,17.77
2022-08-05T22:36:28.621Z,17.88
2022-08-05T22:38:56.255Z,17.81
2022-08-05T22:41:26.280Z,17.72
2022-08-05T22:44:11.973Z,17.93
2022-08-05T22:46:40.787Z,18.06
2022-08-05T22:49:12.184Z,17.79
2022-08-05T22:52:05.350Z,17.76
2022-08-05T22:54:35.585Z,17.67
2022-08-05T22:57:03.901Z,18.37
2022-08-05T22:59:45.161Z,18.42
2022-08-05T23:02:16.953Z,18.08
2022-08-05T23:04:52.131Z,18.28
2022-08-05T23:07:21.854Z,18.01
2022-08-05T23:09:57.095Z,17.75
2022-08-05T23:12:25.473Z,18.16
2022-08-05T23:14:55.339Z,18.38
2022-08-05T23:17:34.480Z,18.40
2022-08-05T23:20:16.385Z,18.37
2022-08-05T23:22:48.362Z,18.12
2022-08-05T23:25:51.634Z,18.09
2022-08-05T23:28:07.110Z,18.16
2022-08-05T23:30:39.589Z,18.42
2022-08-05T23:33:07.529Z,17.88
2022-08-05T23:35:49.008Z,18.38
2022-08-05T23:38:16.265Z,18.52
2022-08-05T23:40:49.981Z,18.27
2022-08-05T23:43:24.772Z,18.03
2022-08-05T23:45:52.500Z,18.10
2022-08-05T23:48:19.721Z,18.24
2022-08-05T23:50:46.524Z,18.27
2022-08-05T23:53:22.252Z,17.97
2022-08-05T23:55:49.912Z,17.76
2022-08-05T23:58:31.641Z,17.72
